Time,TemperatureF,DewpointF,PressureIn,WindDirection,WindDirectionDegrees,WindSpeedMPH,WindSpeedGustMPH,Humidity,HourlyPrecipIn,Conditions,Clouds,dailyrainin,SoftwareType,DateUTC
2013-03-06 00:04:00,30.8,30.0,0.00,NE,41,4.0,-999.0,95,-99.99,,,0.00,weatherlink.com 1.10,2013-03-06 05:04:00,
2013-03-06 00:19:00,30.7,30.0,0.00,NNE,21,2.0,-999.0,95,-99.99,,,0.00,weatherlink.com 1.10,2013-03-06 05:19:00,
2013-03-06 00:34:00,30.7,30.0,0.00,South,169,4.0,-999.0,95,-99.99,,,0.00,weatherlink.com 1.10,2013-03-06 05:34:00,
2013-03-06 00:49:00,30.5,29.0,0.00,North,350,5.0,-999.0,95,-99.99,,,0.00,weatherlink.com 1.10,2013-03-06 05:49:00,
2013-03-06 01:04:00,30.5,29.0,0.00,ESE,110,7.0,-999.0,95,-99.99,,,0.00,weatherlink.com 1.10,2013-03-06 06:04:00,
2013-03-06 01:19:00,30.3,29.0,0.00,SSE,147,10.0,-999.0,95,-99.99,,,0.00,weatherlink.com 1.10,2013-03-06 06:19:00,
2013-03-06 01:34:00,30.4,29.0,0.00,East,84,15.0,-999.0,95,-99.99,,,0.00,weatherlink.com 1.10,2013-03-06 06:34:00,
2013-03-06 01:49:00,30.3,29.0,0.00,ESE,109,5.0,-999.0,95,-99.99,,,0.00,weatherlink.com 1.10,2013-03-06 06:49:00,
2013-03-06 02:04:00,29.7,29.0,0.00,East,99,15.0,-999.0,95,-99.99,,,0.00,weatherlink.com 1.10,2013-03-06 07:04:00,
2013-03-06 02:19:00,29.7,29.0,0.00,ENE,67,6.0,-999.0,95,-99.99,,,0.00,weatherlink.com 1.10,2013-03-06 07:19:00,
2013-03-06 02:34:00,29.6,28.0,0.00,East,81,14.0,-999.0,95,-99.99,,,0.00,weatherlink.com 1.10,2013-03-06 07:34:00,
2013-03-06 02:50:00,29.4,28.0,0.00,East,81,15.0,-999.0,95,-99.99,,,0.00,weatherlink.com 1.10,2013-03-06 07:50:00,
2013-03-06 03:05:00,29.3,28.0,0.00,East,86,14.0,-999.0,95,-99.99,,,0.00,weatherlink.com 1.10,2013-03-06 08:05:00,
2013-03-06 03:20:00,29.2,28.0,0.00,East,93,6.0,-999.0,94,-99.99,,,0.00,weatherlink.com 1.10,2013-03-06 08:20:00,
2013-03-06 03:35:00,29.3,28.0,0.00,NE,56,11.0,-999.0,94,-99.99,,,0.00,weatherlink.com 1.10,2013-03-06 08:35:00,
2013-03-06 03:50:00,29.4,28.0,0.00,NE,54,11.0,-999.0,94,-99.99,,,0.00,weatherlink.com 1.10,2013-03-06 08:50:00,
2013-03-06 04:05:00,29.3,28.0,0.00,ENE,77,12.0,-999.0,94,-99.99,,,0.00,weatherlink.com 1.10,2013-03-06 09:05:00,
2013-03-06 04:20:00,29.5,28.0,0.00,ENE,74,9.0,-999.0,93,-99.99,,,0.00,weatherlink.com 1.10,2013-03-06 09:20:00,
2013-03-06 04:35:00,29.4,28.0,0.00,East,95,12.0,-999.0,94,-99.99,,,0.00,weatherlink.com 1.10,2013-03-06 09:35:00,
2013-03-06 04:50:00,29.4,28.0,0.00,WNW,296,5.0,-999.0,94,-99.99,,,0.00,weatherlink.com 1.10,2013-03-06 09:50:00,
2013-03-06 05:05:00,29.4,28.0,0.00,North,10,10.0,-999.0,94,-99.99,,,0.00,weatherlink.com 1.10,2013-03-06 10:05:00,
2013-03-06 05:20:00,29.7,28.0,0.00,ENE,67,17.0,-999.0,93,-99.99,,,0.00,weatherlink.com 1.10,2013-03-06 10:20:00,
2013-03-06 05:35:00,29.6,28.0,0.00,WNW,283,9.0,-999.0,92,-99.99,,,0.00,weatherlink.com 1.10,2013-03-06 10:35:00,
2013-03-06 05:50:00,29.9,28.0,0.00,NNW,332,7.0,-999.0,92,-99.99,,,0.00,weatherlink.com 1.10,2013-03-06 10:50:00,
2013-03-06 06:05:00,29.6,28.0,0.00,NNW,346,10.0,-999.0,92,-99.99,,,0.00,weatherlink.com 1.10,2013-03-06 11:05:00,
2013-03-06 06:20:00,30.2,28.0,0.00,NE,36,15.0,-999.0,92,-99.99,,,0.00,weatherlink.com 1.10,2013-03-06 11:20:00,
2013-03-06 06:35:00,29.9,28.0,0.00,ENE,73,5.0,-999.0,92,-99.99,,,0.00,weatherlink.com 1.10,2013-03-06 11:35:00,
2013-03-06 06:50:00,29.8,28.0,0.00,SW,233,5.0,-999.0,92,-99.99,,,0.00,weatherlink.com 1.10,2013-03-06 11:50:00,
2013-03-06 07:05:00,30.3,28.0,0.00,NW,305,3.0,-999.0,91,-99.99,,,0.00,weatherlink.com 1.10,2013-03-06 12:05:00,
2013-03-06 07:20:00,30.5,29.0,0.00,WSW,258,6.0,-999.0,92,-99.99,,,0.00,weatherlink.com 1.10,2013-03-06 12:20:00,
2013-03-06 07:35:00,30.1,28.0,0.00,NNW,337,10.0,-999.0,90,-99.99,,,0.00,weatherlink.com 1.10,2013-03-06 12:35:00,
2013-03-06 07:50:00,30.3,28.0,0.00,NNW,340,6.0,-999.0,91,-99.99,,,0.00,weatherlink.com 1.10,2013-03-06 12:50:00,
2013-03-06 08:05:00,30.8,28.0,0.00,NW,320,4.0,-999.0,90,-99.99,,,0.00,weatherlink.com 1.10,2013-03-06 13:05:00,
2013-03-06 08:20:00,30.9,28.0,0.00,WSW,252,6.0,-999.0,90,-99.99,,,0.00,weatherlink.com 1.10,2013-03-06 13:20:00,
2013-03-06 08:35:00,29.9,27.0,0.00,NNE,32,16.0,-999.0,88,-99.99,,,0.00,weatherlink.com 1.10,2013-03-06 13:35:00,
2013-03-06 08:50:00,30.9,28.0,0.00,NE,38,13.0,-999.0,90,-99.99,,,0.00,weatherlink.com 1.10,2013-03-06 13:50:00,
2013-03-06 09:05:00,30.2,27.0,0.00,WNW,302,9.0,-999.0,88,-99.99,,,0.00,weatherlink.com 1.10,2013-03-06 14:05:00,
2013-03-06 09:20:00,29.8,27.0,0.00,NE,34,14.0,-999.0,88,-99.99,,,0.00,weatherlink.com 1.10,2013-03-06 14:20:00,
2013-03-06 09:35:00,29.4,27.0,0.00,North,355,4.0,-999.0,89,-99.99,,,0.00,weatherlink.com 1.10,2013-03-06 14:35:00,
2013-03-06 09:50:00,29.3,27.0,0.00,ENE,61,10.0,-999.0,89,-99.99,,,0.00,weatherlink.com 1.10,2013-03-06 14:50:00,
2013-03-06 10:05:00,29.9,27.0,0.00,West,263,3.0,-999.0,89,-99.99,,,0.00,weatherlink.com 1.10,2013-03-06 15:05:00,
2013-03-06 10:20:00,30.2,28.0,0.00,NW,304,3.0,-999.0,91,-99.99,,,0.00,weatherlink.com 1.10,2013-03-06 15:20:00,
2013-03-06 10:35:00,29.7,27.0,0.00,ENE,75,16.0,-999.0,88,-99.99,,,0.00,weatherlink.com 1.10,2013-03-06 15:35:00,
2013-03-06 10:50:00,30.3,28.0,0.00,NW,309,9.0,-999.0,90,-99.99,,,0.00,weatherlink.com 1.10,2013-03-06 15:50:00,
2013-03-06 11:20:00,31.3,29.0,0.00,SW,235,14.0,-999.0,91,-99.99,,,0.00,weatherlink.com 1.10,2013-03-06 16:20:00,
2013-03-06 11:36:00,31.6,29.0,0.00,NNW,342,11.0,-999.0,89,-99.99,,,0.00,weatherlink.com 1.10,2013-03-06 16:36:00,
2013-03-06 11:50:00,32.7,31.0,0.00,NE,49,12.0,-999.0,92,-99.99,,,0.00,weatherlink.com 1.10,2013-03-06 16:50:00,
2013-03-06 12:05:00,32.4,29.0,0.00,NNE,15,3.0,-999.0,88,-99.99,,,0.00,weatherlink.com 1.10,2013-03-06 17:05:00,
2013-03-06 12:20:00,32.5,30.0,0.00,NNW,346,3.0,-999.0,91,-99.99,,,0.00,weatherlink.com 1.10,2013-03-06 17:20:00,
2013-03-06 12:35:00,31.9,28.0,0.00,ESE,106,10.0,-999.0,86,-99.99,,,0.00,weatherlink.com 1.10,2013-03-06 17:35:00,
2013-03-06 12:50:00,31.9,29.0,0.00,NE,39,13.0,-999.0,87,-99.99,,,0.00,weatherlink.com 1.10,2013-03-06 17:50:00,
2013-03-06 13:05:00,32.2,29.0,0.00,SE,145,3.0,-999.0,87,-99.99,,,0.00,weatherlink.com 1.10,2013-03-06 18:05:00,
2013-03-06 13:20:00,31.7,28.0,0.00,ENE,78,11.0,-999.0,86,-99.99,,,0.00,weatherlink.com 1.10,2013-03-06 18:20:00,
2013-03-06 13:35:00,32.2,29.0,0.00,NE,54,5.0,-999.0,86,-99.99,,,0.00,weatherlink.com 1.10,2013-03-06 18:35:00,
2013-03-06 13:50:00,32.1,28.0,0.00,East,79,13.0,-999.0,86,-99.99,,,0.00,weatherlink.com 1.10,2013-03-06 18:50:00,
2013-03-06 14:05:00,32.3,28.0,0.00,East,99,5.0,-999.0,85,-99.99,,,0.00,weatherlink.com 1.10,2013-03-06 19:05:00,
2013-03-06 14:20:00,32.3,28.0,0.00,ENE,73,8.0,-999.0,85,-99.99,,,0.00,weatherlink.com 1.10,2013-03-06 19:20:00,
2013-03-06 14:35:00,32.6,29.0,0.00,ENE,74,15.0,-999.0,85,-99.99,,,0.00,weatherlink.com 1.10,2013-03-06 19:35:00,
2013-03-06 14:50:00,32.7,29.0,0.00,East,96,9.0,-999.0,87,-99.99,,,0.00,weatherlink.com 1.10,2013-03-06 19:50:00,
2013-03-06 15:05:00,32.5,29.0,0.00,East,84,15.0,-999.0,85,-99.99,,,0.00,weatherlink.com 1.10,2013-03-06 20:05:00,
2013-03-06 15:20:00,32.8,29.0,0.00,ENE,74,10.0,-999.0,85,-99.99,,,0.00,weatherlink.com 1.10,2013-03-06 20:20:00,
2013-03-06 15:35:00,32.8,29.0,0.00,East,88,9.0,-999.0,85,-99.99,,,0.00,weatherlink.com 1.10,2013-03-06 20:35:00,
2013-03-06 15:50:00,32.9,29.0,0.00,ENE,71,9.0,-999.0,85,-99.99,,,0.00,weatherlink.com 1.10,2013-03-06 20:50:00,
2013-03-06 16:05:00,33.0,29.0,0.00,East,84,13.0,-999.0,85,-99.99,,,0.00,weatherlink.com 1.10,2013-03-06 21:05:00,
2013-03-06 16:20:00,33.2,30.0,0.00,East,84,10.0,-999.0,86,-99.99,,,0.00,weatherlink.com 1.10,2013-03-06 21:20:00,
2013-03-06 16:35:00,33.1,29.0,0.00,East,81,13.0,-999.0,84,-99.99,,,0.00,weatherlink.com 1.10,2013-03-06 21:35:00,
2013-03-06 16:50:00,32.9,29.0,0.00,ESE,117,5.0,-999.0,84,-99.99,,,0.00,weatherlink.com 1.10,2013-03-06 21:50:00,
2013-03-06 17:05:00,33.0,29.0,0.00,East,81,12.0,-999.0,85,-99.99,,,0.00,weatherlink.com 1.10,2013-03-06 22:05:00,
2013-03-06 17:20:00,33.0,29.0,0.00,East,79,9.0,-999.0,85,-99.99,,,0.00,weatherlink.com 1.10,2013-03-06 22:20:00,
2013-03-06 17:35:00,32.9,29.0,0.00,ENE,73,10.0,-999.0,85,-99.99,,,0.00,weatherlink.com 1.10,2013-03-06 22:35:00,
2013-03-06 17:50:00,32.9,29.0,0.00,East,86,12.0,-999.0,85,-99.99,,,0.00,weatherlink.com 1.10,2013-03-06 22:50:00,
2013-03-06 18:05:00,33.0,29.0,0.00,East,82,12.0,-999.0,85,-99.99,,,0.00,weatherlink.com 1.10,2013-03-06 23:05:00,
2013-03-06 18:20:00,32.9,29.0,0.00,East,79,8.0,-999.0,85,-99.99,,,0.00,weatherlink.com 1.10,2013-03-06 23:20:00,
2013-03-06 18:35:00,33.0,29.0,0.00,East,79,3.0,-999.0,86,-99.99,,,0.00,weatherlink.com 1.10,2013-03-06 23:35:00,
2013-03-06 18:50:00,32.9,29.0,0.00,East,81,12.0,-999.0,86,-99.99,,,0.00,weatherlink.com 1.10,2013-03-06 23:50:00,
2013-03-06 19:05:00,32.8,29.0,0.00,East,88,5.0,-999.0,85,-99.99,,,0.00,weatherlink.com 1.10,2013-03-07 00:05:00,
2013-03-06 19:20:00,32.9,29.0,0.00,North,360,4.0,-999.0,85,-99.99,,,0.00,weatherlink.com 1.10,2013-03-07 00:20:00,
2013-03-06 19:35:00,32.7,29.0,0.00,NNE,29,5.0,-999.0,85,-99.99,,,0.00,weatherlink.com 1.10,2013-03-07 00:35:00,
2013-03-06 19:50:00,32.6,29.0,0.00,ENE,78,11.0,-999.0,85,-99.99,,,0.00,weatherlink.com 1.10,2013-03-07 00:50:00,
2013-03-06 20:20:00,32.7,29.0,0.00,NE,56,4.0,-999.0,85,-99.99,,,0.00,weatherlink.com 1.10,2013-03-07 01:20:00,
2013-03-06 20:35:00,32.6,29.0,0.00,East,80,5.0,-999.0,85,-99.99,,,0.00,weatherlink.com 1.10,2013-03-07 01:35:00,
2013-03-06 20:50:00,32.8,29.0,0.00,East,83,4.0,-999.0,86,-99.99,,,0.00,weatherlink.com 1.10,2013-03-07 01:50:00,
2013-03-06 21:05:00,32.7,29.0,0.00,East,91,5.0,-999.0,86,-99.99,,,0.00,weatherlink.com 1.10,2013-03-07 02:05:00,
2013-03-06 21:20:00,32.6,29.0,0.00,East,85,2.0,-999.0,86,-99.99,,,0.00,weatherlink.com 1.10,2013-03-07 02:20:00,
2013-03-06 21:35:00,32.6,29.0,0.00,East,82,7.0,-999.0,86,-99.99,,,0.00,weatherlink.com 1.10,2013-03-07 02:35:00,
2013-03-06 21:50:00,32.7,29.0,0.00,East,90,8.0,-999.0,86,-99.99,,,0.00,weatherlink.com 1.10,2013-03-07 02:50:00,
2013-03-06 22:05:00,32.8,29.0,0.00,ENE,77,3.0,-999.0,86,-99.99,,,0.00,weatherlink.com 1.10,2013-03-07 03:05:00,
2013-03-06 22:20:00,32.8,29.0,0.00,East,81,9.0,-999.0,86,-99.99,,,0.00,weatherlink.com 1.10,2013-03-07 03:20:00,
2013-03-06 22:35:00,32.8,29.0,0.00,East,82,11.0,-999.0,86,-99.99,,,0.00,weatherlink.com 1.10,2013-03-07 03:35:00,
2013-03-06 22:50:00,32.6,29.0,0.00,ENE,71,3.0,-999.0,87,-99.99,,,0.00,weatherlink.com 1.10,2013-03-07 03:50:00,
2013-03-06 23:05:00,32.6,29.0,0.00,East,84,10.0,-999.0,86,-99.99,,,0.00,weatherlink.com 1.10,2013-03-07 04:05:00,
2013-03-06 23:20:00,32.7,29.0,0.00,ENE,64,4.0,-999.0,85,-99.99,,,0.00,weatherlink.com 1.10,2013-03-07 04:20:00,
2013-03-06 23:35:00,32.5,29.0,0.00,East,79,9.0,-999.0,86,-99.99,,,0.00,weatherlink.com 1.10,2013-03-07 04:35:00,
2013-03-06 23:50:00,32.3,29.0,0.00,ENE,78,7.0,-999.0,88,-99.99,,,0.00,weatherlink.com 1.10,2013-03-07 04:50:00,